Time;durP1;ratioP1;P1;durP2;ratioP2;P2;SDS_P1;SDS_P2;PMS_P1;PMS_P2;Temp;Humidity;BMP_temperature;BMP_pressure;BME280_temperature;BME280_humidity;BME280_pressure;Samples;Min_cycle;Max_cycle;Signal;HPM_P1;HPM_P2
2021/07/27 00:01:23;;;;;;;0.00;0.00;;;;;;;23.83;38.56;99320.16;5030958;28;20084;-76
2021/07/27 00:03:49;;;;;;;0.10;0.10;;;;;;;23.80;38.63;99320.88;5031354;28;20033;-75
2021/07/27 00:06:14;;;;;;;0.00;0.00;;;;;;;23.80;38.73;99320.06;5031450;28;20022;-76
2021/07/27 00:08:39;;;;;;;0.00;0.00;;;;;;;23.79;38.86;99318.50;5031031;28;20440;-76
2021/07/27 00:11:07;;;;;;;0.10;0.10;;;;;;;23.78;38.66;99320.44;5029142;28;20029;-75
2021/07/27 00:13:33;;;;;;;0.00;0.00;;;;;;;23.74;38.60;99308.66;5030988;28;20038;-75
2021/07/27 00:15:58;;;;;;;0.00;0.00;;;;;;;23.74;38.55;99307.84;5031223;28;20475;-75
2021/07/27 00:18:24;;;;;;;0.10;0.10;;;;;;;23.68;38.76;99307.38;5030403;28;20021;-76
2021/07/27 00:20:50;;;;;;;0.10;0.10;;;;;;;23.61;38.86;99307.22;5029753;28;20033;-75
2021/07/27 00:23:15;;;;;;;0.10;0.10;;;;;;;23.54;39.32;99301.59;5031080;28;20403;-75
2021/07/27 00:25:42;;;;;;;0.00;0.00;;;;;;;23.44;39.39;99298.28;5030830;28;20487;-75
2021/07/27 00:28:08;;;;;;;0.00;0.00;;;;;;;23.38;39.85;99298.91;5030805;28;20049;-76
2021/07/27 00:30:34;;;;;;;0.10;0.10;;;;;;;23.33;39.94;99297.25;5030877;28;20112;-76
2021/07/27 00:32:59;;;;;;;0.03;0.03;;;;;;;23.26;39.92;99297.88;5031095;28;20025;-75
2021/07/27 00:35:27;;;;;;;0.00;0.00;;;;;;;23.27;40.16;99302.19;5030441;28;20050;-76
2021/07/27 00:38:08;;;;;;;0.07;0.07;;;;;;;23.28;40.04;99300.25;5030941;28;20022;-75
2021/07/27 00:40:38;;;;;;;0.10;0.10;;;;;;;23.26;39.92;99306.06;5030811;28;20095;-75
2021/07/27 00:43:10;;;;;;;0.10;0.10;;;;;;;23.26;39.87;99308.78;5030257;28;20037;-75
2021/07/27 00:45:36;;;;;;;0.00;0.00;;;;;;;23.23;40.10;99308.69;5030634;28;20033;-75
2021/07/27 00:48:02;;;;;;;0.00;0.00;;;;;;;23.13;40.24;99308.09;5030602;28;20484;-75
2021/07/27 00:50:28;;;;;;;0.10;0.10;;;;;;;23.08;40.51;99308.34;5030577;28;20487;-75
2021/07/27 00:52:58;;;;;;;0.10;0.10;;;;;;;22.99;40.71;99311.25;5030844;28;20209;-75
2021/07/27 00:55:25;;;;;;;0.10;0.10;;;;;;;22.90;40.74;99310.66;5029975;28;20570;-75
2021/07/27 00:57:50;;;;;;;0.20;0.20;;;;;;;22.80;40.92;99311.97;5030570;28;20099;-76
2021/07/27 01:00:16;;;;;;;0.00;0.00;;;;;;;22.74;40.93;99316.13;5030867;28;20033;-75
2021/07/27 01:02:43;;;;;;;0.00;0.00;;;;;;;22.67;41.53;99311.25;5030515;28;20469;-76
2021/07/27 01:05:09;;;;;;;0.00;0.00;;;;;;;22.60;41.18;99305.63;5030517;28;20108;-76
2021/07/27 01:07:36;;;;;;;0.10;0.10;;;;;;;22.58;41.09;99307.13;5018154;28;20083;-75
2021/07/27 01:10:02;;;;;;;0.10;0.10;;;;;;;22.54;41.12;99312.47;5029363;28;20120;-75
2021/07/27 01:12:27;;;;;;;0.10;0.10;;;;;;;22.53;41.31;99316.34;5028453;28;20061;-75
2021/07/27 01:14:52;;;;;;;0.10;0.10;;;;;;;22.53;41.62;99319.88;5020745;28;20080;-75
2021/07/27 01:17:18;;;;;;;0.03;0.03;;;;;;;22.51;41.06;99316.69;5030699;28;20108;-74
2021/07/27 01:20:00;;;;;;;0.00;0.00;;;;;;;22.48;40.42;99320.09;5030421;28;20025;-76
2021/07/27 01:44:01;;;;;;;0.10;0.10;;;;;;;21.97;42.19;99323.41;5033944;28;20054;-75
2021/07/27 01:46:28;;;;;;;0.10;0.10;;;;;;;21.93;42.46;99321.69;5033750;28;20029;-75
2021/07/27 01:48:54;;;;;;;0.08;0.08;;;;;;;21.85;42.89;99318.78;5033764;28;20033;-75
2021/07/27 01:51:19;;;;;;;0.00;0.00;;;;;;;21.82;43.45;99318.66;5033356;28;20048;-75
2021/07/27 01:53:52;;;;;;;0.00;0.00;;;;;;;21.77;43.27;99316.97;5032250;28;20451;-75
2021/07/27 01:56:19;;;;;;;0.08;0.08;;;;;;;21.75;43.76;99321.97;5033743;28;20029;-75
2021/07/27 01:58:49;;;;;;;0.00;0.00;;;;;;;21.70;43.84;99325.75;5033476;28;20048;-75
2021/07/27 02:01:15;;;;;;;0.00;0.00;;;;;;;21.69;43.98;99312.47;5033748;28;20030;-77
2021/07/27 02:03:40;;;;;;;0.00;0.00;;;;;;;21.69;44.21;99324.16;5033262;28;20032;-77
2021/07/27 02:06:06;;;;;;;0.10;0.10;;;;;;;21.64;44.20;99316.22;5033711;28;20037;-76
2021/07/27 02:08:31;;;;;;;0.10;0.10;;;;;;;21.64;44.37;99320.88;5032756;28;20455;-75
2021/07/27 02:11:11;;;;;;;0.10;0.10;;;;;;;21.70;44.50;99324.94;5033500;28;20452;-75
2021/07/27 02:13:49;;;;;;;0.20;0.20;;;;;;;21.73;44.41;99324.25;5033074;28;20021;-77
2021/07/27 02:16:14;;;;;;;0.10;0.10;;;;;;;21.77;44.39;99333.31;5032371;28;20037;-77
2021/07/27 02:18:40;;;;;;;0.10;0.10;;;;;;;21.80;44.17;99327.19;5031657;28;20036;-77
2021/07/27 02:21:05;;;;;;;0.10;0.10;;;;;;;21.84;44.01;99335.47;5033531;28;20378;-77
2021/07/27 02:23:31;;;;;;;0.00;0.00;;;;;;;21.85;43.77;99345.19;5031373;28;20030;-77
2021/07/27 02:25:56;;;;;;;0.10;0.10;;;;;;;21.84;43.77;99336.25;5031579;28;20132;-77
2021/07/27 02:28:22;;;;;;;0.10;0.10;;;;;;;21.84;44.11;99332.75;5032125;28;20101;-77
2021/07/27 02:30:55;;;;;;;0.10;0.10;;;;;;;21.86;44.28;99339.41;5032931;28;20033;-77
2021/07/27 02:33:22;;;;;;;0.10;0.10;;;;;;;21.88;44.41;99349.97;5033174;28;20048;-78
2021/07/27 02:35:47;;;;;;;0.10;0.10;;;;;;;21.87;43.83;99351.91;5032734;28;20029;-77
2021/07/27 02:38:12;;;;;;;0.10;0.10;;;;;;;21.84;43.95;99352.56;5032849;28;20040;-78
2021/07/27 02:40:38;;;;;;;0.10;0.10;;;;;;;21.76;44.06;99337.16;5031168;28;20041;-77
2021/07/27 02:43:04;;;;;;;0.10;0.10;;;;;;;21.75;44.01;99338.28;5031204;28;20112;-77
2021/07/27 02:45:31;;;;;;;0.03;0.03;;;;;;;21.71;43.90;99345.56;5032633;28;20025;-77
2021/07/27 02:47:57;;;;;;;0.00;0.00;;;;;;;21.57;43.64;99330.41;5031662;28;20098;-77
2021/07/27 02:50:42;;;;;;;0.10;0.10;;;;;;;21.58;43.04;99340.16;5031616;28;20120;-77
2021/07/27 02:53:10;;;;;;;0.10;0.10;;;;;;;21.52;42.95;99340.69;5024954;28;20045;-78
2021/07/27 02:55:36;;;;;;;0.10;0.10;;;;;;;21.49;42.83;99327.78;5031123;28;20068;-77
2021/07/27 02:58:01;;;;;;;0.10;0.10;;;;;;;21.48;43.14;99339.78;5031178;28;20473;-78
2021/07/27 03:00:27;;;;;;;0.10;0.10;;;;;;;21.45;43.49;99335.84;5031211;28;20091;-76
2021/07/27 03:02:54;;;;;;;0.00;0.00;;;;;;;21.46;43.23;99340.16;5032230;28;20052;-76
2021/07/27 03:05:20;;;;;;;0.10;0.10;;;;;;;21.42;42.87;99337.31;5032620;28;20123;-78
2021/07/27 03:10:17;;;;;;;0.10;0.10;;;;;;;21.38;43.02;99336.41;5031837;28;20404;-76
2021/07/27 03:12:45;;;;;;;0.10;0.10;;;;;;;21.39;42.85;99332.53;5032187;28;20029;-75
2021/07/27 03:15:11;;;;;;;;;;;;;;;21.39;43.21;99342.66;5032648;28;20039;-76
2021/07/27 03:17:37;;;;;;;0.10;0.10;;;;;;;21.37;43.28;99344.91;5032016;28;19999;-75
2021/07/27 03:20:04;;;;;;;0.10;0.10;;;;;;;21.34;43.24;99349.09;5032489;28;20029;-74
2021/07/27 03:22:29;;;;;;;0.10;0.10;;;;;;;21.35;43.39;99345.25;5031324;28;20029;-77
2021/07/27 03:24:55;;;;;;;0.10;0.10;;;;;;;21.35;43.75;99337.09;5030763;28;20041;-77
2021/07/27 03:27:20;;;;;;;0.10;0.10;;;;;;;21.40;43.59;99347.75;5032108;28;20429;-77
2021/07/27 03:29:46;;;;;;;0.10;0.10;;;;;;;21.41;43.50;99337.63;5030548;28;20033;-76
2021/07/27 03:32:11;;;;;;;0.10;0.10;;;;;;;21.48;43.67;99342.53;5031756;28;20405;-76
2021/07/27 03:34:36;;;;;;;0.10;0.10;;;;;;;21.54;43.83;99339.22;5031714;28;20029;-76
2021/07/27 03:37:02;;;;;;;0.10;0.10;;;;;;;21.69;43.43;99345.94;5031777;28;20025;-76
2021/07/27 03:39:27;;;;;;;0.30;0.30;;;;;;;21.82;43.30;99346.69;5029763;28;20542;-76
2021/07/27 03:41:53;;;;;;;0.10;0.10;;;;;;;21.97;42.67;99342.47;5031629;28;20051;-76
2021/07/27 03:44:20;;;;;;;0.00;0.00;;;;;;;22.17;42.30;99337.16;5031804;28;20041;-76
2021/07/27 03:46:48;;;;;;;0.05;0.05;;;;;;;22.36;41.90;99340.03;5030625;28;20036;-76
2021/07/27 03:49:13;;;;;;;0.10;0.10;;;;;;;22.57;41.43;99349.13;5031054;28;20065;-76
2021/07/27 03:51:39;;;;;;;0.10;0.10;;;;;;;22.77;41.42;99348.09;5031548;28;20542;-76
2021/07/27 03:54:04;;;;;;;0.00;0.00;;;;;;;23.02;40.89;99354.19;5030882;28;20025;-77
2021/07/27 03:56:30;;;;;;;0.03;0.03;;;;;;;23.30;40.26;99360.72;5031840;28;20025;-78
2021/07/27 03:58:56;;;;;;;0.10;0.10;;;;;;;23.55;38.89;99363.25;5031504;28;20048;-78
2021/07/27 04:01:21;;;;;;;0.00;0.00;;;;;;;23.83;37.66;99363.84;5030139;28;20026;-78
2021/07/27 04:03:47;;;;;;;0.00;0.00;;;;;;;24.09;37.13;99365.19;5029353;28;20029;-78
2021/07/27 04:06:13;;;;;;;0.00;0.00;;;;;;;24.38;36.72;99370.44;5030085;28;20479;-83
2021/07/27 04:08:38;;;;;;;0.00;0.00;;;;;;;24.62;36.67;99372.06;5029715;28;20077;-76
2021/07/27 04:11:04;;;;;;;0.00;0.00;;;;;;;24.92;36.65;99371.44;5028573;28;20033;-78
2021/07/27 04:13:33;;;;;;;0.00;0.00;;;;;;;25.19;36.09;99372.25;5030933;28;20026;-77
2021/07/27 04:16:01;;;;;;;0.10;0.10;;;;;;;25.51;36.07;99365.72;5029370;28;20087;-77
2021/07/27 04:18:27;;;;;;;0.00;0.00;;;;;;;25.77;35.15;99373.13;5029598;28;20504;-76
2021/07/27 04:21:02;;;;;;;0.00;0.00;;;;;;;26.09;34.35;99375.53;5030410;28;20056;-75
2021/07/27 04:23:28;;;;;;;0.00;0.00;;;;;;;26.40;33.47;99370.75;5031011;28;20095;-81
2021/07/27 04:25:53;;;;;;;0.00;0.00;;;;;;;26.72;33.20;99372.25;5028895;28;20440;-78
2021/07/27 04:28:19;;;;;;;0.00;0.00;;;;;;;26.97;32.69;99378.03;5029590;28;20029;-77
2021/07/27 04:30:45;;;;;;;0.00;0.00;;;;;;;27.24;32.36;99375.88;5063258;28;20017;-76
2021/07/27 04:33:10;;;;;;;2.75;0.28;;;;;;;27.52;32.42;99371.00;5030908;28;20063;-75
2021/07/27 04:35:38;;;;;;;0.00;0.00;;;;;;;27.85;31.82;99380.19;5030431;28;20085;-78
2021/07/27 04:38:04;;;;;;;0.00;0.00;;;;;;;28.11;31.39;99381.91;5029868;28;20029;-78
2021/07/27 04:40:30;;;;;;;0.03;0.03;;;;;;;28.42;30.58;99379.66;5029730;28;20021;-78
2021/07/27 04:42:55;;;;;;;0.00;0.00;;;;;;;28.75;30.12;99372.28;5030747;28;20083;-77
2021/07/27 04:45:21;;;;;;;0.32;0.17;;;;;;;29.05;30.02;99369.16;5029272;28;20056;-79
2021/07/27 04:47:46;;;;;;;0.00;0.00;;;;;;;29.35;30.28;99373.47;5029368;28;20120;-79
2021/07/27 04:50:12;;;;;;;0.00;0.00;;;;;;;29.65;29.79;99379.69;5029642;28;20504;-79
2021/07/27 04:52:37;;;;;;;0.10;0.10;;;;;;;29.94;29.31;99374.13;5029238;28;20029;-78
2021/07/27 04:55:04;;;;;;;0.00;0.00;;;;;;;30.21;29.28;99379.91;5029653;28;20603;-79
2021/07/27 04:57:33;;;;;;;0.00;0.00;;;;;;;30.50;28.84;99379.78;5032657;28;20029;-79
2021/07/27 05:00:03;;;;;;;0.00;0.00;;;;;;;30.79;28.39;99379.59;5033403;28;20076;-80
2021/07/27 05:02:29;;;;;;;0.00;0.00;;;;;;;31.12;28.02;99378.16;5033625;28;20400;-80
2021/07/27 05:04:54;;;;;;;0.10;0.10;;;;;;;31.39;27.53;99374.00;5033570;28;20021;-80
2021/07/27 05:07:20;;;;;;;0.05;0.05;;;;;;;31.61;26.89;99369.03;5034867;28;20144;-80
2021/07/27 05:09:45;;;;;;;0.00;0.00;;;;;;;31.83;26.44;99371.56;5033092;28;20154;-79
2021/07/27 05:12:10;;;;;;;0.03;0.03;;;;;;;32.06;26.50;99370.91;5033202;28;20040;-79
2021/07/27 05:14:36;;;;;;;0.10;0.10;;;;;;;32.30;26.15;99379.28;5033048;28;20056;-79
2021/07/27 05:17:09;;;;;;;0.00;0.00;;;;;;;32.53;25.51;99370.28;5033367;28;20069;-79
2021/07/27 05:19:35;;;;;;;0.00;0.00;;;;;;;32.81;25.26;99373.84;5032917;28;20021;-79
2021/07/27 05:22:00;;;;;;;0.00;0.00;;;;;;;33.07;24.72;99360.34;5034232;28;20108;-79
2021/07/27 05:24:26;;;;;;;0.08;0.08;;;;;;;33.29;24.13;99369.06;5033122;28;20206;-79
2021/07/27 05:26:51;;;;;;;0.00;0.00;;;;;;;33.47;23.87;99364.00;5033817;28;20021;-79
2021/07/27 05:29:17;;;;;;;0.00;0.00;;;;;;;33.71;23.47;99365.94;5033054;28;20501;-79
2021/07/27 05:31:43;;;;;;;0.00;0.00;;;;;;;33.82;23.49;99358.19;5032979;28;20025;-79
2021/07/27 05:34:08;;;;;;;0.08;0.08;;;;;;;33.95;23.17;99378.53;5033138;28;20032;-79
2021/07/27 05:36:35;;;;;;;0.10;0.10;;;;;;;34.06;23.50;99380.31;5033004;28;20057;-79
2021/07/27 05:39:00;;;;;;;0.00;0.00;;;;;;;34.16;22.91;99380.06;5032768;28;20402;-81
2021/07/27 05:41:26;;;;;;;0.08;0.08;;;;;;;34.34;22.67;99386.44;5032497;28;20110;-78
2021/07/27 05:43:51;;;;;;;0.10;0.10;;;;;;;34.47;22.22;99387.38;5032468;28;20145;-79
2021/07/27 05:46:16;;;;;;;0.10;0.10;;;;;;;34.59;22.24;99383.91;5034126;28;20495;-79
2021/07/27 05:48:43;;;;;;;0.00;0.00;;;;;;;34.70;22.34;99383.66;5033791;28;20041;-78
2021/07/27 05:51:10;;;;;;;0.00;0.00;;;;;;;34.86;21.98;99385.66;5032751;28;20033;-78
2021/07/27 05:53:36;;;;;;;0.08;0.08;;;;;;;34.99;21.84;99374.66;5033948;28;20034;-80
2021/07/27 05:56:01;;;;;;;0.00;0.00;;;;;;;35.13;21.82;99376.28;5032580;28;20037;-81
2021/07/27 05:58:26;;;;;;;0.00;0.00;;;;;;;35.30;21.71;99370.69;5032829;28;20099;-80
2021/07/27 06:00:52;;;;;;;0.00;0.00;;;;;;;35.43;21.75;99371.56;5032272;28;20104;-80
2021/07/27 06:03:17;;;;;;;0.10;0.10;;;;;;;35.53;21.60;99370.47;5032518;28;20025;-80
2021/07/27 06:05:42;;;;;;;0.00;0.00;;;;;;;35.66;21.86;99369.78;5032324;28;20021;-80
2021/07/27 06:08:08;;;;;;;0.00;0.00;;;;;;;35.77;21.90;99363.88;5032762;28;20040;-80
2021/07/27 06:10:33;;;;;;;0.10;0.10;;;;;;;35.84;21.94;99356.13;5032527;28;20052;-79
2021/07/27 06:12:59;;;;;;;0.05;0.05;;;;;;;36.00;21.61;99348.91;5032477;28;20065;-80
2021/07/27 06:15:24;;;;;;;0.10;0.10;;;;;;;36.14;21.78;99356.06;5033732;28;20437;-80
2021/07/27 06:17:49;;;;;;;0.10;0.10;;;;;;;36.30;21.99;99355.94;5032082;28;20036;-80
2021/07/27 06:20:15;;;;;;;0.10;0.10;;;;;;;36.29;22.08;99348.84;5033601;28;20048;-80
2021/07/27 06:22:40;;;;;;;0.20;0.20;;;;;;;36.11;22.80;99352.19;5032125;28;20068;-80
2021/07/27 06:25:10;;;;;;;0.00;0.00;;;;;;;36.12;22.68;99345.41;5031979;28;20050;-80
2021/07/27 06:27:36;;;;;;;0.10;0.10;;;;;;;36.15;23.01;99349.28;5032078;28;20028;-80
2021/07/27 06:30:02;;;;;;;0.10;0.10;;;;;;;36.24;22.79;99349.38;5031705;28;20025;-80
2021/07/27 06:32:27;;;;;;;0.10;0.10;;;;;;;36.35;23.03;99360.19;5031989;28;20038;-80
2021/07/27 06:34:52;;;;;;;0.00;0.00;;;;;;;36.32;22.98;99353.50;5031580;28;20460;-80
2021/07/27 06:37:18;;;;;;;0.00;0.00;;;;;;;36.31;22.92;99346.38;5031868;28;20117;-80
2021/07/27 06:39:43;;;;;;;0.00;0.00;;;;;;;36.27;22.56;99348.50;5033087;28;20030;-80
2021/07/27 06:42:08;;;;;;;0.10;0.10;;;;;;;36.13;22.81;99346.94;5031487;28;20030;-80
2021/07/27 06:44:34;;;;;;;0.00;0.00;;;;;;;36.08;22.66;99339.13;5031831;28;20055;-80
2021/07/27 06:46:59;;;;;;;0.00;0.00;;;;;;;36.00;22.89;99355.28;5031000;28;20415;-79
2021/07/27 06:49:25;;;;;;;0.20;0.20;;;;;;;35.88;23.12;99339.31;5031648;28;20045;-79
2021/07/27 06:51:50;;;;;;;0.00;0.00;;;;;;;35.80;23.65;99335.94;5031333;28;20033;-80
2021/07/27 06:54:15;;;;;;;0.03;0.03;;;;;;;35.72;23.62;99340.19;5031453;28;20037;-79
2021/07/27 06:56:44;;;;;;;0.00;0.00;;;;;;;35.49;24.21;99344.78;5031156;28;20095;-81
2021/07/27 06:59:09;;;;;;;0.10;0.10;;;;;;;35.37;23.85;99343.47;5031206;28;20037;-79
2021/07/27 07:01:35;;;;;;;0.10;0.10;;;;;;;35.24;23.83;99346.22;5030857;28;20031;-81
2021/07/27 07:04:00;;;;;;;0.08;0.08;;;;;;;35.09;24.50;99342.25;5031279;28;20029;-81
2021/07/27 07:06:26;;;;;;;0.10;0.10;;;;;;;34.90;24.69;99338.38;5031274;28;20496;-80
2021/07/27 07:08:51;;;;;;;0.00;0.00;;;;;;;34.82;24.82;99340.53;5030943;28;20121;-79
2021/07/27 07:11:16;;;;;;;0.00;0.00;;;;;;;34.68;24.89;99341.66;5031096;28;20025;-81
2021/07/27 07:13:43;;;;;;;0.00;0.00;;;;;;;34.57;25.13;99338.34;5030686;28;20021;-79
2021/07/27 07:16:10;;;;;;;0.20;0.20;;;;;;;34.47;25.62;99343.75;5031132;28;20021;-80
2021/07/27 07:18:36;;;;;;;0.00;0.00;;;;;;;34.36;25.70;99334.09;5031024;28;20034;-79
2021/07/27 07:21:06;;;;;;;0.00;0.00;;;;;;;34.10;26.08;99333.84;5029593;28;20025;-79
2021/07/27 07:23:31;;;;;;;0.10;0.10;;;;;;;34.00;26.37;99341.97;5030483;28;20037;-80
2021/07/27 07:25:57;;;;;;;0.25;0.25;;;;;;;33.86;26.39;99325.63;5030265;28;20052;-79
2021/07/27 07:28:22;;;;;;;0.00;0.00;;;;;;;33.63;26.17;99332.00;5030772;28;20017;-79
2021/07/27 07:30:48;;;;;;;0.10;0.10;;;;;;;33.43;26.69;99332.78;5030437;28;20136;-79
2021/07/27 07:33:14;;;;;;;0.20;0.20;;;;;;;33.34;27.12;99332.59;5030691;28;20028;-80
2021/07/27 07:35:39;;;;;;;0.00;0.00;;;;;;;33.26;26.66;99342.22;5030423;28;20041;-79
2021/07/27 07:38:05;;;;;;;0.10;0.10;;;;;;;33.11;27.54;99336.16;5030541;28;20025;-80
2021/07/27 07:40:31;;;;;;;0.10;0.10;;;;;;;33.01;27.21;99333.13;5030549;28;20496;-81
2021/07/27 07:43:01;;;;;;;0.10;0.10;;;;;;;32.87;27.63;99325.88;5030208;28;20045;-79
2021/07/27 07:45:27;;;;;;;0.00;0.00;;;;;;;32.72;27.79;99341.88;5030444;28;20444;-80
2021/07/27 07:47:53;;;;;;;0.00;0.00;;;;;;;32.56;27.62;99342.53;5031253;28;20431;-81
2021/07/27 07:50:19;;;;;;;0.10;0.10;;;;;;;32.41;27.67;99341.19;5030515;28;20029;-81
2021/07/27 07:52:45;;;;;;;0.20;0.20;;;;;;;32.16;28.10;99338.75;5030268;28;20030;-81
2021/07/27 07:55:11;;;;;;;0.90;0.13;;;;;;;32.05;28.28;99338.91;5030376;28;20031;-80
2021/07/27 07:57:38;;;;;;;0.00;0.00;;;;;;;31.90;28.28;99346.59;5030315;28;20057;-80
2021/07/27 08:00:05;;;;;;;0.10;0.10;;;;;;;31.85;28.95;99350.59;5030020;28;20072;-81
2021/07/27 08:02:30;;;;;;;0.10;0.10;;;;;;;31.87;28.82;99342.69;5029910;28;20026;-81
2021/07/27 08:04:56;;;;;;;0.00;0.00;;;;;;;31.83;28.40;99330.88;5029775;28;20038;-80
2021/07/27 08:07:22;;;;;;;0.20;0.20;;;;;;;31.87;29.15;99333.59;5029901;28;20029;-80
2021/07/27 08:09:48;;;;;;;0.10;0.10;;;;;;;31.90;28.60;99343.84;5029672;28;20036;-80
2021/07/27 08:12:17;;;;;;;0.20;0.20;;;;;;;31.85;28.59;99333.22;5029838;28;20022;-80
2021/07/27 08:14:45;;;;;;;0.10;0.10;;;;;;;31.89;28.11;99331.19;5029717;28;20029;-80
2021/07/27 08:17:12;;;;;;;0.00;0.00;;;;;;;31.78;28.24;99342.41;5031387;28;20103;-82
2021/07/27 08:19:39;;;;;;;0.10;0.10;;;;;;;31.71;27.81;99332.22;5029997;28;20484;-82
2021/07/27 08:22:05;;;;;;;0.00;0.00;;;;;;;31.61;28.37;99341.38;5029513;28;20393;-83
2021/07/27 08:24:32;;;;;;;0.40;0.30;;;;;;;31.51;28.16;99334.78;5029777;28;20029;-83
2021/07/27 08:26:58;;;;;;;0.10;0.10;;;;;;;31.44;28.42;99334.84;5029433;28;20032;-80
2021/07/27 08:29:23;;;;;;;1.20;0.40;;;;;;;31.47;28.56;99331.28;5029743;28;20041;-80
2021/07/27 08:31:49;;;;;;;0.32;0.32;;;;;;;31.50;28.10;99338.72;5029342;28;20032;-82
2021/07/27 08:34:17;;;;;;;0.15;0.15;;;;;;;31.45;27.93;99339.97;5029879;28;20481;-83
2021/07/27 08:36:46;;;;;;;0.20;0.20;;;;;;;31.45;28.11;99331.66;5029679;28;20028;-80
2021/07/27 08:39:12;;;;;;;0.00;0.00;;;;;;;31.54;28.21;99322.09;5031007;28;20029;-79
2021/07/27 08:41:39;;;;;;;0.08;0.08;;;;;;;31.65;27.86;99333.84;5029479;28;20117;-80
2021/07/27 08:44:08;;;;;;;0.00;0.00;;;;;;;31.77;27.62;99327.78;5029571;28;20029;-81
2021/07/27 08:46:33;;;;;;;0.00;0.00;;;;;;;31.87;27.64;99322.53;5029814;28;20076;-82
2021/07/27 08:48:59;;;;;;;0.00;0.00;;;;;;;31.92;27.40;99322.88;5029413;28;20025;-82
2021/07/27 08:51:25;;;;;;;0.20;0.20;;;;;;;31.90;27.33;99318.94;5029725;28;20049;-84
2021/07/27 08:53:50;;;;;;;0.00;0.00;;;;;;;31.86;27.46;99321.75;5029345;28;20049;-83
2021/07/27 08:56:16;;;;;;;0.00;0.00;;;;;;;31.91;27.20;99317.75;5031280;28;20400;-82
2021/07/27 08:58:42;;;;;;;0.00;0.00;;;;;;;31.96;27.50;99331.13;5029821;28;20041;-80
2021/07/27 09:01:08;;;;;;;0.43;0.40;;;;;;;31.96;27.23;99324.78;5029413;28;20029;-81
2021/07/27 09:03:33;;;;;;;0.00;0.00;;;;;;;32.00;27.94;99314.47;5029707;28;20037;-81
2021/07/27 09:06:06;;;;;;;0.00;0.00;;;;;;;32.07;28.04;99317.16;5029478;28;20025;-81
2021/07/27 09:08:31;;;;;;;0.10;0.10;;;;;;;32.09;26.82;99317.50;5029651;28;20040;-80
2021/07/27 09:11:04;;;;;;;0.00;0.00;;;;;;;32.05;26.77;99320.31;5029235;28;20025;-82
2021/07/27 09:13:33;;;;;;;0.00;0.00;;;;;;;32.01;26.52;99310.50;5029442;28;20057;-82
2021/07/27 09:16:00;;;;;;;0.00;0.00;;;;;;;31.99;26.93;99308.13;5029280;28;20400;-81
2021/07/27 09:18:27;;;;;;;0.20;0.10;;;;;;;31.97;26.73;99307.78;5029540;28;20036;-81
2021/07/27 09:20:56;;;;;;;0.00;0.00;;;;;;;32.00;26.65;99309.72;5029316;28;20408;-82
2021/07/27 09:23:29;;;;;;;0.00;0.00;;;;;;;32.04;26.45;99307.69;5029631;28;20416;-81
2021/07/27 09:26:00;;;;;;;0.00;0.00;;;;;;;32.16;27.23;99308.31;5029119;28;20140;-81
2021/07/27 09:28:27;;;;;;;0.05;0.05;;;;;;;32.23;26.37;99309.03;5029282;28;20029;-81
2021/07/27 09:31:01;;;;;;;0.00;0.00;;;;;;;32.37;25.83;99321.88;5029352;28;20030;-82
2021/07/27 09:33:32;;;;;;;0.00;0.00;;;;;;;32.35;25.89;99315.97;5029392;28;20033;-85
2021/07/27 09:35:57;;;;;;;0.10;0.10;;;;;;;32.36;26.10;99313.97;5029145;28;20070;-81
2021/07/27 09:38:24;;;;;;;0.40;0.40;;;;;;;32.28;25.34;99313.31;5029690;28;20025;-85
2021/07/27 09:40:51;;;;;;;0.20;0.20;;;;;;;32.18;25.50;99303.16;5030583;28;20025;-84
2021/07/27 09:43:22;;;;;;;0.10;0.10;;;;;;;32.14;25.67;99313.47;5030177;28;20036;-84
2021/07/27 09:45:56;;;;;;;0.80;0.80;;;;;;;32.04;25.91;99310.47;5032670;28;20276;-82
2021/07/27 09:48:22;;;;;;;0.00;0.00;;;;;;;31.99;25.83;99301.84;5032766;28;20069;-83
2021/07/27 09:50:50;;;;;;;0.98;0.45;;;;;;;31.94;25.47;99300.31;5032617;28;20061;-83
2021/07/27 09:53:16;;;;;;;0.30;0.30;;;;;;;31.90;25.30;99307.88;5032903;28;20060;-82
2021/07/27 09:55:41;;;;;;;0.15;0.15;;;;;;;31.88;25.41;99299.97;5032710;28;20088;-81
2021/07/27 09:58:07;;;;;;;0.32;0.32;;;;;;;31.95;26.18;99298.34;5032306;28;20033;-82
2021/07/27 10:01:05;;;;;;;0.20;0.20;;;;;;;32.07;26.49;99292.25;5032350;28;20025;-80
2021/07/27 10:03:34;;;;;;;0.10;0.10;;;;;;;32.18;25.93;99287.34;5016782;28;20044;-80
2021/07/27 10:06:02;;;;;;;0.10;0.10;;;;;;;32.28;25.29;99291.16;5033665;28;20463;-83
2021/07/27 10:08:33;;;;;;;0.85;0.10;;;;;;;32.24;24.75;99287.69;5032381;28;20095;-83
2021/07/27 10:11:13;;;;;;;0.40;0.20;;;;;;;32.22;24.26;99281.78;5031856;28;20022;-82
2021/07/27 10:13:48;;;;;;;0.20;0.20;;;;;;;32.25;24.51;99284.50;5032452;28;20052;-83
2021/07/27 10:16:25;;;;;;;0.20;0.20;;;;;;;32.31;24.81;99278.47;5032369;28;20041;-81
2021/07/27 10:18:51;;;;;;;;;;;;;;;32.40;24.53;99275.97;5032363;28;20033;-83
2021/07/27 10:21:25;;;;;;;0.00;0.00;;;;;;;32.43;24.93;99271.59;5032178;28;20273;-82
2021/07/27 10:23:51;;;;;;;0.00;0.00;;;;;;;32.49;24.39;99269.91;5032102;28;20025;-82
2021/07/27 10:26:33;;;;;;;0.17;0.17;;;;;;;32.53;24.22;99260.34;5031953;28;20057;-82
2021/07/27 10:28:59;;;;;;;0.03;0.03;;;;;;;32.63;24.81;99263.34;5031939;28;20057;-83
2021/07/27 10:31:36;;;;;;;0.28;0.28;;;;;;;32.73;24.93;99256.84;5033339;28;20040;-81
2021/07/27 10:34:06;;;;;;;0.00;0.00;;;;;;;32.84;25.07;99257.47;5032109;28;20030;-82
2021/07/27 10:36:35;;;;;;;0.00;0.00;;;;;;;32.93;25.08;99248.59;5032359;28;20129;-82
2021/07/27 10:39:09;;;;;;;0.20;0.20;;;;;;;33.02;24.92;99254.38;5031972;28;20044;-82
2021/07/27 10:41:37;;;;;;;0.00;0.00;;;;;;;33.16;24.93;99252.53;5032044;28;20401;-82
2021/07/27 10:44:13;;;;;;;0.20;0.20;;;;;;;33.20;23.54;99247.69;5031606;28;20079;-82
2021/07/27 10:46:44;;;;;;;1.65;1.00;;;;;;;33.21;24.39;99252.03;5031827;28;20106;-82
2021/07/27 10:49:20;;;;;;;0.00;0.00;;;;;;;33.28;23.65;99249.13;5031310;28;20029;-84
2021/07/27 10:51:46;;;;;;;0.00;0.00;;;;;;;33.29;24.10;99247.13;5031368;28;20076;-82
2021/07/27 10:54:14;;;;;;;0.10;0.10;;;;;;;33.28;24.05;99240.03;5031262;28;20029;-82
2021/07/27 10:56:42;;;;;;;;;;;;;;;33.33;24.37;99248.63;5032240;28;20428;-81
2021/07/27 10:59:08;;;;;;;0.00;0.00;;;;;;;33.38;24.93;99241.81;5031087;28;20062;-81
2021/07/27 11:01:33;;;;;;;0.00;0.00;;;;;;;33.43;24.59;99246.09;5031375;28;20108;-81
2021/07/27 11:04:09;;;;;;;0.10;0.10;;;;;;;33.47;24.55;99235.69;5030999;28;20180;-81
2021/07/27 11:06:35;;;;;;;0.10;0.10;;;;;;;33.57;24.52;99234.72;5031154;28;20541;-81
2021/07/27 11:09:00;;;;;;;0.20;0.20;;;;;;;33.63;24.06;99224.66;5030932;28;20195;-81
2021/07/27 11:11:26;;;;;;;0.10;0.10;;;;;;;33.74;23.67;99237.50;5031185;28;20531;-82
2021/07/27 11:13:53;;;;;;;0.22;0.20;;;;;;;33.75;23.39;99226.00;5031163;28;20400;-81
2021/07/27 11:16:18;;;;;;;0.22;0.22;;;;;;;33.77;23.45;99220.78;5031045;28;20032;-82
2021/07/27 11:18:44;;;;;;;0.20;0.20;;;;;;;33.79;24.08;99217.56;5032213;28;20034;-82
2021/07/27 11:21:10;;;;;;;0.00;0.00;;;;;;;33.86;23.67;99223.00;5030592;28;20031;-82
2021/07/27 11:23:36;;;;;;;0.00;0.00;;;;;;;33.91;23.44;99216.94;5031359;28;20370;-82
2021/07/27 11:26:02;;;;;;;0.03;0.03;;;;;;;33.91;23.13;99222.50;5030640;28;20053;-82
2021/07/27 11:28:38;;;;;;;0.52;0.20;;;;;;;33.94;23.75;99215.31;5032149;28;20025;-81
2021/07/27 11:31:17;;;;;;;0.10;0.10;;;;;;;33.99;23.00;99212.00;5030640;28;20057;-85
2021/07/27 11:33:50;;;;;;;0.00;0.00;;;;;;;33.91;23.54;99222.50;5030902;28;20033;-82
2021/07/27 11:36:23;;;;;;;0.47;0.47;;;;;;;33.89;23.19;99211.03;5030479;28;20495;-84
2021/07/27 11:38:48;;;;;;;0.00;0.00;;;;;;;33.90;23.28;99212.59;5030492;28;20061;-81
2021/07/27 11:41:18;;;;;;;0.10;0.10;;;;;;;33.93;23.52;99199.88;5030216;28;20068;-82
2021/07/27 11:43:44;;;;;;;0.00;0.00;;;;;;;33.94;23.59;99188.34;5032076;28;20104;-81
2021/07/27 11:46:12;;;;;;;0.10;0.10;;;;;;;33.99;23.39;99196.13;5030266;28;20385;-81
2021/07/27 11:48:39;;;;;;;0.10;0.10;;;;;;;34.00;22.88;99199.69;5030387;28;20037;-81
2021/07/27 11:51:05;;;;;;;0.00;0.00;;;;;;;34.05;23.06;99193.63;5030184;28;20040;-82
2021/07/27 11:53:39;;;;;;;0.30;0.30;;;;;;;34.05;22.99;99201.94;5030334;28;20071;-81
2021/07/27 11:56:12;;;;;;;0.60;0.60;;;;;;;33.92;22.52;99190.75;5030128;28;20404;-84
2021/07/27 11:58:38;;;;;;;0.20;0.20;;;;;;;33.89;23.13;99193.63;5030002;28;20037;-81